Time;durP1;ratioP1;P1;durP2;ratioP2;P2;SDS_P1;SDS_P2;PMS_P1;PMS_P2;Temp;Humidity;BMP_temperature;BMP_pressure;BME280_temperature;BME280_humidity;BME280_pressure;Samples;Min_cycle;Max_cycle;Signal;HPM_P1;HPM_P2
2023/03/13 00:00:53;;;;;;;2.63;1.70;;;;;;;;;;5160210;27;20202;-72
2023/03/13 00:03:20;;;;;;;2.65;1.70;;;;;;;;;;5160441;27;20575;-72
2023/03/13 00:05:48;;;;;;;1.88;1.70;;;;;;;;;;5159512;27;20270;-72
2023/03/13 00:08:16;;;;;;;2.22;1.83;;;;;;;;;;5160844;27;20646;-72
2023/03/13 00:10:45;;;;;;;2.67;1.90;;;;;;;;;;5160669;27;20554;-72
2023/03/13 00:13:13;;;;;;;1.95;1.60;;;;;;;;;;5160732;27;20205;-72
2023/03/13 00:15:41;;;;;;;1.73;1.60;;;;;;;;;;5107319;27;20491;-72
2023/03/13 00:18:08;;;;;;;1.75;1.63;;;;;;;;;;5055786;28;20639;-72
2023/03/13 00:20:36;;;;;;;2.65;1.60;;;;;;;;;;5085132;27;20221;-72
2023/03/13 00:23:04;;;;;;;1.70;1.60;;;;;;;;;;5160443;27;20202;-72
2023/03/13 00:25:32;;;;;;;2.30;1.80;;;;;;;;;;5160291;27;20605;-72
2023/03/13 00:28:01;;;;;;;2.25;1.85;;;;;;;;;;5160370;27;20206;-72
2023/03/13 00:30:29;;;;;;;2.67;1.80;;;;;;;;;;5159950;27;20593;-72
2023/03/13 00:32:56;;;;;;;1.67;1.50;;;;;;;;;;5160656;27;20197;-72
2023/03/13 00:35:24;;;;;;;1.98;1.40;;;;;;;;;;5159647;27;20204;-72
2023/03/13 00:37:52;;;;;;;1.85;1.60;;;;;;;;;;5160074;27;20209;-72
2023/03/13 00:40:20;;;;;;;2.35;1.83;;;;;;;;;;5160157;27;20197;-72
2023/03/13 00:42:47;;;;;;;1.73;1.42;;;;;;;;;;5160184;27;20201;-72
2023/03/13 00:45:16;;;;;;;2.70;1.63;;;;;;;;;;5153229;27;20281;-72
2023/03/13 00:47:45;;;;;;;2.05;1.50;;;;;;;;;;5138229;27;20210;-72
2023/03/13 00:50:12;;;;;;;2.28;1.63;;;;;;;;;;5138623;27;20233;-72
2023/03/13 00:52:40;;;;;;;2.47;1.80;;;;;;;;;;5139163;27;20305;-72
2023/03/13 00:55:08;;;;;;;1.95;1.48;;;;;;;;;;5138901;27;20229;-72
2023/03/13 00:57:36;;;;;;;2.03;1.55;;;;;;;;;;5139426;27;20202;-72
2023/03/13 01:00:06;;;;;;;1.88;1.45;;;;;;;;;;5139017;27;20255;-72
2023/03/13 01:02:35;;;;;;;2.00;1.50;;;;;;;;;;5139352;27;20481;-72
2023/03/13 01:05:03;;;;;;;1.92;1.52;;;;;;;;;;5142844;27;20289;-72
2023/03/13 01:07:31;;;;;;;1.40;1.30;;;;;;;;;;5159671;27;20201;-72
2023/03/13 01:09:59;;;;;;;1.63;1.40;;;;;;;;;;5159667;27;20221;-72
2023/03/13 01:12:26;;;;;;;2.33;1.60;;;;;;;;;;5159663;27;20217;-72
2023/03/13 01:14:55;;;;;;;2.00;1.40;;;;;;;;;;5159260;27;20465;-72
2023/03/13 01:17:22;;;;;;;1.60;1.40;;;;;;;;;;5159335;27;20235;-72
2023/03/13 01:19:51;;;;;;;1.77;1.60;;;;;;;;;;5149737;27;20190;-72
2023/03/13 01:22:19;;;;;;;1.50;1.40;;;;;;;;;;5159007;27;20244;-72
2023/03/13 01:24:51;;;;;;;1.35;1.25;;;;;;;;;;5159546;27;20250;-72
2023/03/13 01:27:18;;;;;;;1.67;1.35;;;;;;;;;;5139264;27;20262;-72
2023/03/13 01:29:46;;;;;;;2.17;1.55;;;;;;;;;;5139007;28;20226;-72
2023/03/13 01:32:14;;;;;;;2.67;1.40;;;;;;;;;;5138653;28;20208;-72
2023/03/13 01:34:42;;;;;;;1.98;1.30;;;;;;;;;;5138822;28;20565;-72
2023/03/13 01:37:11;;;;;;;2.55;1.30;;;;;;;;;;5138702;27;20241;-72
2023/03/13 01:39:39;;;;;;;1.50;1.20;;;;;;;;;;5138314;28;20242;-72
2023/03/13 01:42:07;;;;;;;1.65;1.40;;;;;;;;;;5138864;28;20209;-72
2023/03/13 01:44:49;;;;;;;2.33;1.65;;;;;;;;;;5138945;28;20202;-73
2023/03/13 01:47:17;;;;;;;1.50;1.38;;;;;;;;;;5155963;27;20197;-72
2023/03/13 01:49:46;;;;;;;2.13;1.40;;;;;;;;;;5153881;27;20225;-72
2023/03/13 01:52:17;;;;;;;1.83;1.30;;;;;;;;;;5138292;28;20225;-72
2023/03/13 01:54:47;;;;;;;1.33;1.17;;;;;;;;;;5138772;28;20237;-72
2023/03/13 01:57:17;;;;;;;1.40;1.13;;;;;;;;;;5138058;27;20198;-72
2023/03/13 01:59:48;;;;;;;1.45;1.30;;;;;;;;;;5141839;27;20278;-72
2023/03/13 02:02:16;;;;;;;1.50;1.05;;;;;;;;;;5142667;27;20202;-72
2023/03/13 02:04:46;;;;;;;1.55;1.08;;;;;;;;;;5142842;27;20255;-72
2023/03/13 02:07:17;;;;;;;2.05;1.30;;;;;;;;;;5159453;27;20198;-72
2023/03/13 02:09:48;;;;;;;1.30;1.20;;;;;;;;;;5163208;27;20233;-72
2023/03/13 02:12:17;;;;;;;2.22;1.30;;;;;;;;;;5163139;27;20201;-72
2023/03/13 02:14:46;;;;;;;1.33;1.17;;;;;;;;;;5163202;27;20205;-72
2023/03/13 02:17:14;;;;;;;1.33;1.15;;;;;;;;;;5162657;27;20216;-72
2023/03/13 02:19:44;;;;;;;1.40;1.27;;;;;;;;;;5160893;27;20189;-72
2023/03/13 02:22:15;;;;;;;1.73;1.23;;;;;;;;;;5162563;27;20237;-73
2023/03/13 02:24:47;;;;;;;1.65;1.30;;;;;;;;;;5162623;27;20252;-72
2023/03/13 02:27:16;;;;;;;1.48;1.27;;;;;;;;;;5145464;27;20198;-72
2023/03/13 02:29:44;;;;;;;1.63;1.27;;;;;;;;;;5141748;27;20222;-72
2023/03/13 02:32:12;;;;;;;1.27;1.00;;;;;;;;;;5141681;27;20234;-72
2023/03/13 02:34:42;;;;;;;2.35;1.30;;;;;;;;;;5141654;27;20241;-72
2023/03/13 02:37:11;;;;;;;2.63;1.20;;;;;;;;;;5141535;27;20274;-72
2023/03/13 02:39:42;;;;;;;1.73;1.17;;;;;;;;;;5142445;27;20220;-72
2023/03/13 02:42:10;;;;;;;1.55;1.10;;;;;;;;;;5144768;27;20201;-72
2023/03/13 02:44:40;;;;;;;1.30;1.10;;;;;;;;;;5154627;27;20209;-72
2023/03/13 02:47:09;;;;;;;1.55;1.10;;;;;;;;;;5141653;27;20487;-72
2023/03/13 02:49:37;;;;;;;1.45;1.20;;;;;;;;;;5141372;27;20218;-72
2023/03/13 02:52:09;;;;;;;1.30;1.08;;;;;;;;;;5141537;27;20229;-71
2023/03/13 02:54:39;;;;;;;1.38;1.05;;;;;;;;;;5141291;27;20202;-71
2023/03/13 02:57:07;;;;;;;1.70;1.23;;;;;;;;;;5141495;27;20263;-72
2023/03/13 02:59:35;;;;;;;1.40;1.08;;;;;;;;;;5141373;27;20202;-72
2023/03/13 03:02:04;;;;;;;2.35;1.33;;;;;;;;;;5141384;27;20232;-72
2023/03/13 03:04:32;;;;;;;1.45;1.20;;;;;;;;;;5141549;27;20535;-72
2023/03/13 03:07:00;;;;;;;1.10;0.93;;;;;;;;;;5141095;27;20251;-72
2023/03/13 03:09:27;;;;;;;1.45;1.20;;;;;;;;;;5141054;27;20574;-72
2023/03/13 03:11:55;;;;;;;1.75;1.23;;;;;;;;;;5140660;27;20682;-73
2023/03/13 03:14:23;;;;;;;1.27;1.00;;;;;;;;;;5141201;27;20270;-72
2023/03/13 03:16:51;;;;;;;1.73;1.00;;;;;;;;;;5141413;27;20263;-72
2023/03/13 03:19:20;;;;;;;1.25;1.15;;;;;;;;;;5141072;27;20324;-72
2023/03/13 03:21:50;;;;;;;1.95;1.00;;;;;;;;;;5156743;27;20233;-72
2023/03/13 03:24:18;;;;;;;1.27;1.00;;;;;;;;;;5161938;27;20432;-72
2023/03/13 03:26:45;;;;;;;1.90;1.02;;;;;;;;;;5161450;27;20212;-72
2023/03/13 03:29:13;;;;;;;1.17;1.08;;;;;;;;;;5161694;27;20201;-72
2023/03/13 03:31:41;;;;;;;1.98;1.10;;;;;;;;;;5160938;27;20232;-72
2023/03/13 03:34:09;;;;;;;1.30;1.00;;;;;;;;;;5161618;27;20206;-71
2023/03/13 03:36:38;;;;;;;1.65;1.30;;;;;;;;;;5161202;27;20262;-72
2023/03/13 03:39:06;;;;;;;2.35;1.23;;;;;;;;;;5161621;27;20240;-72
2023/03/13 03:41:34;;;;;;;1.70;1.02;;;;;;;;;;5161020;27;20522;-72
2023/03/13 03:44:02;;;;;;;2.15;1.20;;;;;;;;;;5160772;27;20650;-72
2023/03/13 03:46:30;;;;;;;1.50;1.08;;;;;;;;;;5161392;27;20569;-72
2023/03/13 03:48:58;;;;;;;1.17;0.95;;;;;;;;;;5160881;27;20237;-71
2023/03/13 03:51:26;;;;;;;1.77;1.08;;;;;;;;;;5160739;27;20286;-72
2023/03/13 03:53:55;;;;;;;1.58;1.25;;;;;;;;;;5161121;27;20305;-72
2023/03/13 03:56:23;;;;;;;1.67;1.17;;;;;;;;;;5161276;27;20248;-72
2023/03/13 03:58:50;;;;;;;1.17;1.02;;;;;;;;;;5160269;27;20209;-72
2023/03/13 04:01:18;;;;;;;1.70;0.90;;;;;;;;;;5158979;27;20232;-72
2023/03/13 04:03:47;;;;;;;1.30;1.10;;;;;;;;;;5160968;27;20205;-71
2023/03/13 04:06:14;;;;;;;1.20;1.10;;;;;;;;;;5160746;27;20226;-71
2023/03/13 04:08:42;;;;;;;1.20;1.00;;;;;;;;;;5160674;27;20563;-72
2023/03/13 04:11:11;;;;;;;2.03;1.20;;;;;;;;;;5160437;27;20391;-72
2023/03/13 04:13:39;;;;;;;1.77;1.30;;;;;;;;;;5160605;27;20657;-72
2023/03/13 04:16:10;;;;;;;0.98;0.90;;;;;;;;;;5160526;27;20205;-72
2023/03/13 04:18:37;;;;;;;1.00;0.90;;;;;;;;;;5160212;27;20202;-72
2023/03/13 04:21:06;;;;;;;1.65;0.93;;;;;;;;;;5159714;27;20233;-72
2023/03/13 04:23:34;;;;;;;1.30;0.98;;;;;;;;;;5159188;27;20201;-72
2023/03/13 04:26:01;;;;;;;1.73;1.08;;;;;;;;;;5159860;27;20205;-72
2023/03/13 04:28:31;;;;;;;1.65;1.00;;;;;;;;;;5159876;27;20258;-72
2023/03/13 04:31:00;;;;;;;1.13;0.95;;;;;;;;;;5160027;27;20226;-72
2023/03/13 04:33:27;;;;;;;1.17;0.90;;;;;;;;;;5160215;27;20202;-72
2023/03/13 04:35:55;;;;;;;1.30;0.98;;;;;;;;;;5160180;27;20597;-72
2023/03/13 04:38:22;;;;;;;1.20;1.10;;;;;;;;;;5159872;27;20258;-72
2023/03/13 04:40:50;;;;;;;1.50;1.20;;;;;;;;;;5160205;27;20198;-72
2023/03/13 04:43:18;;;;;;;1.77;0.90;;;;;;;;;;5159643;27;20561;-72
2023/03/13 04:45:47;;;;;;;1.20;0.80;;;;;;;;;;5160041;27;20616;-72
2023/03/13 04:48:14;;;;;;;1.73;1.10;;;;;;;;;;5159949;27;20202;-72
2023/03/13 04:50:42;;;;;;;1.30;0.88;;;;;;;;;;5159568;27;20232;-72
2023/03/13 04:53:10;;;;;;;2.53;1.42;;;;;;;;;;5159075;27;20205;-72
2023/03/13 04:55:37;;;;;;;1.90;1.05;;;;;;;;;;5159395;27;20202;-72
2023/03/13 04:58:05;;;;;;;1.65;1.17;;;;;;;;;;5159597;27;20500;-72
2023/03/13 05:00:33;;;;;;;1.48;1.20;;;;;;;;;;5159426;27;20205;-72
2023/03/13 05:03:01;;;;;;;1.50;1.00;;;;;;;;;;5159052;27;20202;-72
2023/03/13 05:05:29;;;;;;;1.70;1.02;;;;;;;;;;5159005;27;20296;-72
2023/03/13 05:07:56;;;;;;;1.58;0.93;;;;;;;;;;5159511;27;20619;-72
2023/03/13 05:10:24;;;;;;;1.45;1.10;;;;;;;;;;5159235;27;20221;-72
2023/03/13 05:12:51;;;;;;;1.30;1.00;;;;;;;;;;5158730;27;20201;-72
2023/03/13 05:15:19;;;;;;;2.03;1.10;;;;;;;;;;5159080;27;20301;-72
2023/03/13 05:17:46;;;;;;;2.20;1.10;;;;;;;;;;5050729;27;20673;-72
2023/03/13 05:20:15;;;;;;;2.00;1.20;;;;;;;;;;5034032;27;20240;-72
2023/03/13 05:22:43;;;;;;;1.48;0.90;;;;;;;;;;5033791;28;20216;-72
2023/03/13 05:25:10;;;;;;;2.22;1.10;;;;;;;;;;5034249;28;20202;-72
2023/03/13 05:27:38;;;;;;;1.20;1.00;;;;;;;;;;5033519;28;20201;-71
2023/03/13 05:30:06;;;;;;;1.63;1.00;;;;;;;;;;5033758;28;20544;-72
2023/03/13 05:32:33;;;;;;;0.93;0.82;;;;;;;;;;5033668;28;20297;-72
2023/03/13 05:35:01;;;;;;;1.67;0.98;;;;;;;;;;5033260;28;20210;-72
2023/03/13 05:37:30;;;;;;;1.67;1.10;;;;;;;;;;5032830;28;20216;-72
2023/03/13 05:39:57;;;;;;;2.20;1.25;;;;;;;;;;5032967;28;20204;-72
2023/03/13 05:42:25;;;;;;;2.58;1.35;;;;;;;;;;5033049;28;20300;-72
2023/03/13 05:44:53;;;;;;;1.83;1.20;;;;;;;;;;5032900;28;20320;-72
2023/03/13 05:47:20;;;;;;;1.95;1.17;;;;;;;;;;5032938;28;20289;-72
2023/03/13 05:49:48;;;;;;;1.80;1.20;;;;;;;;;;5032632;28;20205;-72
2023/03/13 05:52:15;;;;;;;1.67;1.08;;;;;;;;;;5032160;28;20218;-72
2023/03/13 05:54:44;;;;;;;1.77;0.90;;;;;;;;;;5032073;28;20296;-72
2023/03/13 05:57:11;;;;;;;1.42;1.08;;;;;;;;;;5032474;28;20209;-72
2023/03/13 05:59:39;;;;;;;1.08;0.77;;;;;;;;;;5031974;28;20296;-72
2023/03/13 06:02:06;;;;;;;2.97;1.20;;;;;;;;;;5031463;28;20212;-72
2023/03/13 06:04:34;;;;;;;1.35;1.10;;;;;;;;;;5031309;28;20237;-72
2023/03/13 06:07:02;;;;;;;1.70;1.00;;;;;;;;;;5031072;28;20756;-72
2023/03/13 06:09:29;;;;;;;2.13;1.10;;;;;;;;;;5033052;28;20285;-72
2023/03/13 06:11:58;;;;;;;2.03;1.45;;;;;;;;;;5046282;28;20324;-72
2023/03/13 06:14:25;;;;;;;1.80;1.10;;;;;;;;;;5050516;28;20213;-72
2023/03/13 06:16:55;;;;;;;1.98;0.98;;;;;;;;;;5050354;28;20216;-72
2023/03/13 06:19:23;;;;;;;1.52;1.10;;;;;;;;;;5050353;28;20231;-72
2023/03/13 06:21:50;;;;;;;2.20;1.20;;;;;;;;;;5049669;27;20230;-72
2023/03/13 06:24:18;;;;;;;1.60;1.00;;;;;;;;;;5050852;28;20308;-72
2023/03/13 06:26:45;;;;;;;2.30;0.95;;;;;;;;;;5051166;28;20205;-72
2023/03/13 06:29:15;;;;;;;2.30;1.00;;;;;;;;;;5049702;28;20205;-72
2023/03/13 06:31:42;;;;;;;1.60;1.00;;;;;;;;;;5050908;28;20220;-72
2023/03/13 06:34:11;;;;;;;1.48;1.00;;;;;;;;;;5051255;28;20578;-72
2023/03/13 06:36:39;;;;;;;1.40;1.05;;;;;;;;;;5050937;28;20288;-73
2023/03/13 06:39:07;;;;;;;2.00;1.00;;;;;;;;;;5051006;28;20217;-72
2023/03/13 06:41:34;;;;;;;1.58;0.90;;;;;;;;;;5050134;28;20288;-72
2023/03/13 06:44:02;;;;;;;1.48;0.90;;;;;;;;;;5050117;28;20201;-72
2023/03/13 06:46:31;;;;;;;1.17;0.85;;;;;;;;;;5052384;28;20803;-72
2023/03/13 06:48:59;;;;;;;1.50;0.80;;;;;;;;;;5054135;28;20205;-73
2023/03/13 06:51:27;;;;;;;1.20;1.00;;;;;;;;;;5054822;27;20229;-74
2023/03/13 06:53:54;;;;;;;0.88;0.70;;;;;;;;;;5053881;28;20303;-73
2023/03/13 06:56:22;;;;;;;3.53;1.17;;;;;;;;;;5054064;28;20649;-73
2023/03/13 06:58:49;;;;;;;1.55;1.40;;;;;;;;;;5054336;28;20774;-73
2023/03/13 07:01:18;;;;;;;1.45;0.90;;;;;;;;;;5054629;28;20288;-73
2023/03/13 07:03:47;;;;;;;1.40;0.90;;;;;;;;;;5054488;28;20215;-72
2023/03/13 07:06:15;;;;;;;1.20;1.02;;;;;;;;;;5054580;28;20580;-74
2023/03/13 07:08:42;;;;;;;1.73;1.00;;;;;;;;;;5054958;28;20215;-74
2023/03/13 07:11:11;;;;;;;1.55;0.95;;;;;;;;;;5054106;28;20221;-73
2023/03/13 07:13:39;;;;;;;1.83;0.90;;;;;;;;;;5054039;28;20292;-73
2023/03/13 07:16:07;;;;;;;2.17;1.15;;;;;;;;;;5053794;28;20662;-73
2023/03/13 07:18:35;;;;;;;1.92;1.02;;;;;;;;;;5054047;28;20284;-73
2023/03/13 07:21:05;;;;;;;1.45;0.85;;;;;;;;;;5062534;27;20284;-73
2023/03/13 07:23:33;;;;;;;1.85;0.80;;;;;;;;;;5074200;28;20204;-73
2023/03/13 07:26:02;;;;;;;1.75;1.13;;;;;;;;;;5073984;28;20215;-71
2023/03/13 07:28:30;;;;;;;1.67;0.90;;;;;;;;;;5074658;28;20213;-71
2023/03/13 07:31:04;;;;;;;1.50;0.82;;;;;;;;;;5072302;27;20204;-71
2023/03/13 07:33:32;;;;;;;1.20;0.77;;;;;;;;;;5067162;28;20227;-72
2023/03/13 07:36:01;;;;;;;1.10;0.70;;;;;;;;;;5073849;28;20231;-72
2023/03/13 07:38:30;;;;;;;1.35;1.00;;;;;;;;;;5074136;28;20200;-72
2023/03/13 07:40:58;;;;;;;1.88;1.30;;;;;;;;;;5074387;28;20252;-74
2023/03/13 07:43:26;;;;;;;1.50;1.00;;;;;;;;;;5058446;28;20216;-73
2023/03/13 07:45:57;;;;;;;1.17;0.98;;;;;;;;;;5053833;28;20646;-73
2023/03/13 07:48:26;;;;;;;1.50;0.88;;;;;;;;;;5053178;28;20304;-71
2023/03/13 07:50:54;;;;;;;1.95;0.93;;;;;;;;;;5053851;28;20205;-73
2023/03/13 07:53:22;;;;;;;1.73;0.80;;;;;;;;;;5053727;28;20355;-72
2023/03/13 07:55:54;;;;;;;1.33;0.90;;;;;;;;;;5052941;28;20207;-73
2023/03/13 07:58:22;;;;;;;1.13;0.90;;;;;;;;;;5053683;28;20283;-72
2023/03/13 08:00:49;;;;;;;2.30;1.10;;;;;;;;;;5053712;28;20517;-72
2023/03/13 08:03:17;;;;;;;1.45;0.90;;;;;;;;;;5053322;28;20284;-73
2023/03/13 08:05:44;;;;;;;1.15;0.98;;;;;;;;;;5053553;28;20241;-73
2023/03/13 08:08:12;;;;;;;1.23;0.88;;;;;;;;;;5052807;28;20307;-73
2023/03/13 08:10:39;;;;;;;1.70;0.98;;;;;;;;;;5052926;28;20211;-72
2023/03/13 08:13:08;;;;;;;1.23;0.90;;;;;;;;;;5052901;28;20225;-73
2023/03/13 08:15:36;;;;;;;1.63;1.10;;;;;;;;;;5054102;28;20301;-73
2023/03/13 08:18:03;;;;;;;1.42;0.80;;;;;;;;;;5053157;28;20297;-72
2023/03/13 08:20:31;;;;;;;1.60;1.00;;;;;;;;;;5052812;28;20661;-72
2023/03/13 08:22:58;;;;;;;1.30;0.98;;;;;;;;;;5052988;28;20577;-72
2023/03/13 08:25:26;;;;;;;2.15;1.15;;;;;;;;;;5052839;28;20292;-73
2023/03/13 08:27:53;;;;;;;1.75;0.80;;;;;;;;;;5052636;28;20244;-72
2023/03/13 08:30:22;;;;;;;1.13;0.63;;;;;;;;;;5052754;28;20287;-72
2023/03/13 08:32:50;;;;;;;1.20;1.10;;;;;;;;;;5052388;28;20235;-72
2023/03/13 08:35:17;;;;;;;1.00;0.80;;;;;;;;;;5052845;28;20291;-73
2023/03/13 08:37:45;;;;;;;1.60;0.88;;;;;;;;;;5053067;28;20299;-72
2023/03/13 08:40:13;;;;;;;1.35;0.85;;;;;;;;;;5052398;28;20232;-72
2023/03/13 08:42:40;;;;;;;1.33;1.00;;;;;;;;;;5051636;28;20212;-73
2023/03/13 08:45:08;;;;;;;1.00;0.80;;;;;;;;;;5052525;28;20703;-73
2023/03/13 08:47:37;;;;;;;1.55;0.95;;;;;;;;;;5052495;28;20309;-73
2023/03/13 08:50:05;;;;;;;1.17;0.90;;;;;;;;;;5052564;28;20288;-73
2023/03/13 08:52:32;;;;;;;1.52;1.05;;;;;;;;;;5053021;28;20319;-72
2023/03/13 08:55:00;;;;;;;1.65;1.10;;;;;;;;;;5053204;28;20197;-73
2023/03/13 08:57:27;;;;;;;0.95;0.85;;;;;;;;;;5052093;28;20210;-73
2023/03/13 08:59:54;;;;;;;1.30;1.00;;;;;;;;;;5052017;28;20212;-73
2023/03/13 09:02:22;;;;;;;2.08;1.00;;;;;;;;;;5052024;28;20283;-71
2023/03/13 09:04:51;;;;;;;1.23;0.90;;;;;;;;;;5052752;28;20220;-72
2023/03/13 09:07:19;;;;;;;1.60;0.90;;;;;;;;;;5052685;28;20292;-72
2023/03/13 09:09:46;;;;;;;1.02;0.93;;;;;;;;;;5051887;28;20320;-72
2023/03/13 09:12:13;;;;;;;1.77;0.88;;;;;;;;;;5052759;28;20316;-72
2023/03/13 09:14:41;;;;;;;1.42;0.98;;;;;;;;;;5052467;28;20297;-71
2023/03/13 09:17:08;;;;;;;1.33;0.90;;;;;;;;;;5053121;28;20255;-73
2023/03/13 09:19:36;;;;;;;0.82;0.73;;;;;;;;;;5052279;28;20269;-71
2023/03/13 09:22:05;;;;;;;1.90;0.80;;;;;;;;;;5052136;28;20236;-73
2023/03/13 09:24:32;;;;;;;1.27;0.80;;;;;;;;;;5052245;28;20197;-73
2023/03/13 09:26:59;;;;;;;0.82;0.60;;;;;;;;;;5052460;28;20212;-71
2023/03/13 09:29:27;;;;;;;1.10;0.70;;;;;;;;;;5052432;28;20205;-73
2023/03/13 09:31:55;;;;;;;1.10;0.70;;;;;;;;;;5051529;28;20311;-71
2023/03/13 09:34:24;;;;;;;1.02;0.88;;;;;;;;;;5051406;28;20304;-71
2023/03/13 09:36:51;;;;;;;0.60;0.60;;;;;;;;;;5052048;28;20247;-71
2023/03/13 09:39:20;;;;;;;0.98;0.80;;;;;;;;;;5051741;28;20216;-73
2023/03/13 09:41:50;;;;;;;0.88;0.68;;;;;;;;;;5051833;28;20205;-73
2023/03/13 09:44:20;;;;;;;1.27;0.80;;;;;;;;;;5051942;28;20651;-71
2023/03/13 09:46:50;;;;;;;0.90;0.80;;;;;;;;;;5052059;28;20287;-73
2023/03/13 09:49:24;;;;;;;1.10;0.70;;;;;;;;;;5052032;28;20296;-73
2023/03/13 09:51:54;;;;;;;1.10;0.73;;;;;;;;;;5051845;28;20319;-73
2023/03/13 09:54:25;;;;;;;0.80;0.80;;;;;;;;;;5051035;28;20207;-73
2023/03/13 09:56:54;;;;;;;1.02;0.90;;;;;;;;;;5051032;28;20295;-72
2023/03/13 09:59:25;;;;;;;0.95;0.70;;;;;;;;;;5051921;28;20490;-73
2023/03/13 10:01:54;;;;;;;0.65;0.50;;;;;;;;;;5056551;27;20292;-73
2023/03/13 10:04:30;;;;;;;0.60;0.60;;;;;;;;;;5146762;27;20197;-73
2023/03/13 10:06:57;;;;;;;1.02;0.80;;;;;;;;;;5155651;27;20585;-73
2023/03/13 10:09:29;;;;;;;1.25;0.90;;;;;;;;;;5156009;27;20214;-73
2023/03/13 10:11:59;;;;;;;1.50;0.70;;;;;;;;;;5151542;27;20217;-71
2023/03/13 10:14:30;;;;;;;0.70;0.70;;;;;;;;;;5121344;27;20193;-72
2023/03/13 10:17:02;;;;;;;1.35;1.00;;;;;;;;;;5151703;27;20186;-71
2023/03/13 10:19:32;;;;;;;1.90;0.80;;;;;;;;;;5156397;27;20201;-73
2023/03/13 10:22:03;;;;;;;0.95;0.73;;;;;;;;;;5160737;27;20264;-73
2023/03/13 10:24:34;;;;;;;0.70;0.70;;;;;;;;;;5137381;27;20204;-71
2023/03/13 10:27:01;;;;;;;1.02;0.70;;;;;;;;;;5151418;27;20255;-72
2023/03/13 10:29:30;;;;;;;0.85;0.70;;;;;;;;;;5160220;27;20300;-71
2023/03/13 10:31:58;;;;;;;0.95;0.80;;;;;;;;;;5159769;27;20231;-71
2023/03/13 10:34:27;;;;;;;0.80;0.70;;;;;;;;;;5159661;27;20193;-72
2023/03/13 10:36:59;;;;;;;0.90;0.60;;;;;;;;;;5159714;27;20202;-72
2023/03/13 10:39:27;;;;;;;1.30;0.70;;;;;;;;;;5157880;27;20566;-73
2023/03/13 10:42:00;;;;;;;0.68;0.60;;;;;;;;;;5154655;27;20316;-73
2023/03/13 10:44:31;;;;;;;1.42;0.70;;;;;;;;;;5160354;27;20202;-73
2023/03/13 10:47:00;;;;;;;1.30;0.50;;;;;;;;;;5159274;27;20308;-72
2023/03/13 10:49:27;;;;;;;0.98;0.80;;;;;;;;;;5158752;27;20202;-72
2023/03/13 10:51:55;;;;;;;1.05;0.77;;;;;;;;;;5160334;27;20208;-72
2023/03/13 10:54:24;;;;;;;0.68;0.68;;;;;;;;;;5158963;27;20206;-72
2023/03/13 10:56:53;;;;;;;1.20;0.88;;;;;;;;;;5096232;27;20194;-72
2023/03/13 10:59:25;;;;;;;0.80;0.70;;;;;;;;;;5158966;27;20201;-72
2023/03/13 11:01:53;;;;;;;0.50;0.50;;;;;;;;;;5159657;27;20485;-72
2023/03/13 11:04:22;;;;;;;0.85;0.60;;;;;;;;;;5159709;27;20495;-73
2023/03/13 11:06:52;;;;;;;0.82;0.60;;;;;;;;;;5115455;27;20498;-72
2023/03/13 11:09:20;;;;;;;0.82;0.70;;;;;;;;;;5074428;28;20204;-73
2023/03/13 11:11:49;;;;;;;0.55;0.55;;;;;;;;;;5073756;28;20204;-72
2023/03/13 11:14:18;;;;;;;1.05;0.70;;;;;;;;;;5123719;27;20308;-73
2023/03/13 11:16:51;;;;;;;0.70;0.65;;;;;;;;;;5158923;27;20635;-73
2023/03/13 11:19:30;;;;;;;0.70;0.50;;;;;;;;;;5157630;27;20202;-73
2023/03/13 11:22:04;;;;;;;0.68;0.68;;;;;;;;;;5158311;27;20320;-73
2023/03/13 11:24:36;;;;;;;0.85;0.73;;;;;;;;;;5156672;27;20547;-73
2023/03/13 11:27:07;;;;;;;0.60;0.60;;;;;;;;;;5158897;27;20284;-72
2023/03/13 11:29:39;;;;;;;0.95;0.60;;;;;;;;;;5158000;27;20718;-74
2023/03/13 11:32:15;;;;;;;1.10;0.60;;;;;;;;;;5157637;27;20201;-73
2023/03/13 11:34:45;;;;;;;0.68;0.68;;;;;;;;;;5151242;27;20205;-73
2023/03/13 11:37:14;;;;;;;0.70;0.63;;;;;;;;;;5157438;27;20601;-73
2023/03/13 11:39:50;;;;;;;1.23;0.90;;;;;;;;;;5158008;27;20212;-73
2023/03/13 11:42:36;;;;;;;0.98;0.60;;;;;;;;;;5157635;27;20205;-73
2023/03/13 11:45:06;;;;;;;0.90;0.80;;;;;;;;;;5157578;27;20199;-73
2023/03/13 11:47:41;;;;;;;0.73;0.63;;;;;;;;;;5157608;27;20280;-73
2023/03/13 11:50:19;;;;;;;0.90;0.70;;;;;;;;;;5158289;27;20201;-73
2023/03/13 11:52:57;;;;;;;0.90;0.70;;;;;;;;;;5158314;27;20324;-73
2023/03/13 11:55:28;;;;;;;0.85;0.70;;;;;;;;;;5157495;27;20239;-73
2023/03/13 11:58:05;;;;;;;1.00;0.85;;;;;;;;;;5158751;27;20480;-73
2023/03/13 12:00:34;;;;;;;0.85;0.70;;;;;;;;;;5156109;27;20284;-72
2023/03/13 12:03:07;;;;;;;0.93;0.80;;;;;;;;;;5157301;27;20198;-72
2023/03/13 12:05:39;;;;;;;1.25;0.93;;;;;;;;;;5157234;27;20201;-72
2023/03/13 12:08:08;;;;;;;0.88;0.77;;;;;;;;;;5157685;27;20743;-73
2023/03/13 12:10:38;;;;;;;0.73;0.60;;;;;;;;;;5157468;27;20204;-73
2023/03/13 12:13:08;;;;;;;0.90;0.70;;;;;;;;;;5158163;27;20250;-73
2023/03/13 12:15:38;;;;;;;0.85;0.70;;;;;;;;;;5157688;27;20288;-71
2023/03/13 12:18:10;;;;;;;0.98;0.77;;;;;;;;;;5157474;27;20280;-71
2023/03/13 12:20:41;;;;;;;0.90;0.80;;;;;;;;;;5157755;27;20461;-73
2023/03/13 12:23:17;;;;;;;0.80;0.80;;;;;;;;;;5156959;27;20649;-73
2023/03/13 12:25:46;;;;;;;0.70;0.70;;;;;;;;;;5157670;27;20236;-73
2023/03/13 12:28:22;;;;;;;0.80;0.68;;;;;;;;;;5120881;27;20276;-71
2023/03/13 12:30:53;;;;;;;0.70;0.60;;;;;;;;;;5157343;27;20704;-73
2023/03/13 12:33:24;;;;;;;0.80;0.70;;;;;;;;;;5156459;27;20654;-72
2023/03/13 12:35:54;;;;;;;0.80;0.70;;;;;;;;;;5151624;27;20269;-73
2023/03/13 12:38:25;;;;;;;1.08;0.70;;;;;;;;;;5156983;27;20288;-73
2023/03/13 12:40:58;;;;;;;1.33;0.68;;;;;;;;;;5155932;27;20604;-73
2023/03/13 12:43:29;;;;;;;0.70;0.70;;;;;;;;;;5156089;27;20198;-73
2023/03/13 12:46:06;;;;;;;0.80;0.80;;;;;;;;;;5157071;27;20693;-71
2023/03/13 12:48:43;;;;;;;0.90;0.80;;;;;;;;;;5156099;27;20204;-73
2023/03/13 12:51:25;;;;;;;1.00;0.90;;;;;;;;;;5155860;27;20313;-72
2023/03/13 12:54:11;;;;;;;0.82;0.63;;;;;;;;;;5031200;28;20221;-73
2023/03/13 12:56:45;;;;;;;0.75;0.60;;;;;;;;;;5031131;28;20198;-73
2023/03/13 12:59:15;;;;;;;0.90;0.80;;;;;;;;;;5030694;28;20206;-73
2023/03/13 13:01:44;;;;;;;0.70;0.60;;;;;;;;;;5031435;28;20336;-73
2023/03/13 13:04:15;;;;;;;0.80;0.80;;;;;;;;;;5031473;28;20583;-73
2023/03/13 13:06:56;;;;;;;0.82;0.80;;;;;;;;;;5032437;28;20482;-73
2023/03/13 13:09:25;;;;;;;1.10;0.80;;;;;;;;;;5061421;28;20210;-71
2023/03/13 13:11:55;;;;;;;0.77;0.73;;;;;;;;;;5030884;28;20406;-71
2023/03/13 13:14:52;;;;;;;1.00;0.70;;;;;;;;;;5031215;28;20232;-71
2023/03/13 13:17:23;;;;;;;0.77;0.70;;;;;;;;;;5024316;28;20210;-71
2023/03/13 13:19:52;;;;;;;1.25;0.90;;;;;;;;;;5067790;27;20201;-71
2023/03/13 13:22:38;;;;;;;0.65;0.65;;;;;;;;;;5155988;27;20831;-73
2023/03/13 13:25:28;;;;;;;0.70;0.70;;;;;;;;;;5155595;27;20237;-73
2023/03/13 13:27:55;;;;;;;0.70;0.70;;;;;;;;;;5155245;27;20296;-73
2023/03/13 13:30:33;;;;;;;1.70;0.90;;;;;;;;;;5155465;27;20844;-73
2023/03/13 13:33:16;;;;;;;1.00;0.90;;;;;;;;;;5155084;27;20221;-72
2023/03/13 13:35:45;;;;;;;0.80;0.80;;;;;;;;;;5153988;27;20226;-72
2023/03/13 13:38:39;;;;;;;0.80;0.80;;;;;;;;;;5154684;27;20201;-72
2023/03/13 13:41:24;;;;;;;0.70;0.70;;;;;;;;;;5155580;27;20204;-73
2023/03/13 13:44:12;;;;;;;1.05;0.68;;;;;;;;;;5154991;27;20228;-72
2023/03/13 13:46:44;;;;;;;1.02;0.70;;;;;;;;;;5143516;27;20546;-72
2023/03/13 13:49:16;;;;;;;1.05;0.70;;;;;;;;;;5154772;27;20208;-72
2023/03/13 13:52:05;;;;;;;0.80;0.80;;;;;;;;;;5154543;27;20304;-72
2023/03/13 13:54:33;;;;;;;0.80;0.80;;;;;;;;;;5156273;27;20221;-73
2023/03/13 13:57:01;;;;;;;0.68;0.60;;;;;;;;;;5160328;27;20288;-73
2023/03/13 13:59:39;;;;;;;0.85;0.75;;;;;;;;;;5160360;27;20202;-73
2023/03/13 14:02:16;;;;;;;0.93;0.75;;;;;;;;;;5159278;27;20585;-72
2023/03/13 14:04:44;;;;;;;0.77;0.77;;;;;;;;;;5159429;27;20292;-72
2023/03/13 14:07:17;;;;;;;0.90;0.65;;;;;;;;;;5160012;27;20683;-71
2023/03/13 14:09:48;;;;;;;0.70;0.70;;;;;;;;;;5159238;27;20708;-73
2023/03/13 14:12:28;;;;;;;0.80;0.70;;;;;;;;;;5158825;27;20289;-71
2023/03/13 14:15:09;;;;;;;0.82;0.70;;;;;;;;;;5154587;27;20217;-73
2023/03/13 14:17:41;;;;;;;0.93;0.85;;;;;;;;;;5159960;27;20201;-73
2023/03/13 14:20:17;;;;;;;0.70;0.60;;;;;;;;;;5158263;27;20216;-73
2023/03/13 14:22:47;;;;;;;0.73;0.63;;;;;;;;;;5159342;27;20288;-73
2023/03/13 14:25:14;;;;;;;1.15;0.70;;;;;;;;;;5159091;27;20550;-71
2023/03/13 14:27:45;;;;;;;1.10;1.00;;;;;;;;;;5158871;27;20295;-71
2023/03/13 14:30:12;;;;;;;1.08;0.93;;;;;;;;;;5158804;27;20292;-71
2023/03/13 14:32:40;;;;;;;1.05;0.80;;;;;;;;;;5159655;27;20297;-71
2023/03/13 14:35:08;;;;;;;0.85;0.70;;;;;;;;;;5157633;27;20257;-70
2023/03/13 14:37:36;;;;;;;0.90;0.90;;;;;;;;;;5157446;27;20288;-72
2023/03/13 14:40:09;;;;;;;0.85;0.70;;;;;;;;;;5033549;28;20313;-73
2023/03/13 14:42:41;;;;;;;0.50;0.50;;;;;;;;;;5033293;28;20231;-72
2023/03/13 14:45:15;;;;;;;1.13;0.60;;;;;;;;;;5033660;28;20249;-73
2023/03/13 14:47:43;;;;;;;0.90;0.77;;;;;;;;;;5033265;28;20292;-72
2023/03/13 14:50:12;;;;;;;0.70;0.70;;;;;;;;;;5032390;28;20296;-73
2023/03/13 14:52:45;;;;;;;1.00;0.90;;;;;;;;;;5033242;28;20301;-72
2023/03/13 14:55:28;;;;;;;0.80;0.80;;;;;;;;;;5033279;28;20235;-72
2023/03/13 14:57:56;;;;;;;0.93;0.82;;;;;;;;;;5033617;28;20312;-72